createdAt,value
2023-05-10T00:00:35.305Z,12.35
2023-05-10T00:01:35.288Z,12.35
2023-05-10T00:02:35.386Z,12.34
2023-05-10T00:03:35.366Z,12.37
2023-05-10T00:04:35.298Z,12.38
2023-05-10T00:05:35.293Z,12.38
2023-05-10T00:06:35.433Z,12.39
2023-05-10T00:07:35.254Z,12.39
2023-05-10T00:08:35.196Z,12.41
2023-05-10T00:09:35.273Z,12.42
2023-05-10T00:10:35.185Z,12.41
2023-05-10T00:11:35.189Z,12.42
2023-05-10T00:12:35.198Z,12.42
2023-05-10T00:13:35.152Z,12.45
2023-05-10T00:14:35.185Z,12.46
2023-05-10T00:15:35.139Z,12.46
2023-05-10T00:16:35.884Z,12.46
2023-05-10T00:17:36.075Z,12.46
2023-05-10T00:18:35.095Z,12.45
2023-05-10T00:19:35.062Z,12.42
2023-05-10T00:20:35.146Z,12.42
2023-05-10T00:21:35.088Z,12.42
2023-05-10T00:22:35.076Z,12.42
2023-05-10T00:23:35.073Z,12.39
2023-05-10T00:24:35.067Z,12.39
2023-05-10T00:25:35.069Z,12.41
2023-05-10T00:26:35.064Z,12.42
2023-05-10T00:27:35.008Z,12.41
2023-05-10T00:28:35.021Z,12.38
2023-05-10T00:29:34.991Z,12.38
2023-05-10T00:30:35.269Z,12.37
2023-05-10T00:31:35.088Z,12.38
2023-05-10T00:32:34.989Z,12.39
2023-05-10T00:33:34.991Z,12.39
2023-05-10T00:34:35.701Z,12.41
2023-05-10T00:35:34.916Z,12.39
2023-05-10T00:36:34.927Z,12.42
2023-05-10T00:37:35.614Z,12.41
2023-05-10T00:38:34.931Z,12.41
2023-05-10T00:39:34.913Z,12.39
2023-05-10T00:40:34.877Z,12.39
2023-05-10T00:41:34.806Z,12.39
2023-05-10T00:42:34.858Z,12.39
2023-05-10T00:43:34.848Z,12.38
2023-05-10T00:44:34.838Z,12.37
2023-05-10T00:45:34.780Z,12.37
2023-05-10T00:46:34.883Z,12.38
2023-05-10T00:47:34.832Z,12.39
2023-05-10T00:48:34.786Z,12.39
2023-05-10T00:49:34.753Z,12.39
2023-05-10T00:50:34.754Z,12.39
2023-05-10T00:51:34.745Z,12.39
2023-05-10T00:52:34.736Z,12.42
2023-05-10T00:53:34.764Z,12.39
2023-05-10T00:54:34.721Z,12.38
2023-05-10T00:55:34.688Z,12.39
2023-05-10T00:56:34.684Z,12.41
2023-05-10T00:57:35.496Z,12.39
2023-05-10T00:58:34.712Z,12.41
2023-05-10T00:59:34.649Z,12.42
2023-05-10T01:00:34.666Z,12.39
2023-05-10T01:01:34.648Z,12.37
2023-05-10T01:02:34.739Z,12.38
2023-05-10T01:03:34.647Z,12.38
2023-05-10T01:04:34.633Z,12.38
2023-05-10T01:05:34.626Z,12.38
2023-05-10T01:06:34.547Z,12.37
2023-05-10T01:07:34.545Z,12.37
2023-05-10T01:08:34.564Z,12.38
2023-05-10T01:09:34.509Z,12.39
2023-05-10T01:10:34.539Z,12.38
2023-05-10T01:11:34.530Z,12.39
2023-05-10T01:12:34.604Z,12.38
2023-05-10T01:13:34.474Z,12.37
2023-05-10T01:14:34.479Z,12.39
2023-05-10T01:15:34.481Z,12.38
2023-05-10T01:16:34.649Z,12.39
2023-05-10T01:17:34.458Z,12.39
2023-05-10T01:18:34.806Z,12.39
2023-05-10T01:19:34.409Z,12.41
2023-05-10T01:20:34.426Z,12.39
2023-05-10T01:21:34.432Z,12.41
2023-05-10T01:22:34.394Z,12.41
2023-05-10T01:23:34.341Z,12.41
2023-05-10T01:24:34.369Z,12.39
2023-05-10T01:25:34.324Z,12.39
2023-05-10T01:26:34.366Z,12.39
2023-05-10T01:27:34.299Z,12.39
2023-05-10T01:28:34.379Z,12.39
2023-05-10T01:29:34.275Z,12.39
2023-05-10T01:30:34.287Z,12.39
2023-05-10T01:31:34.346Z,12.39
2023-05-10T01:32:34.335Z,12.38
2023-05-10T01:33:34.236Z,12.37
2023-05-10T01:34:34.350Z,12.35
2023-05-10T01:35:34.323Z,12.35
2023-05-10T01:36:34.236Z,12.35
2023-05-10T01:37:34.184Z,12.35
2023-05-10T01:38:34.245Z,12.35
2023-05-10T01:39:34.200Z,12.34
2023-05-10T01:40:34.170Z,12.31
2023-05-10T01:41:34.139Z,12.28
2023-05-10T01:42:34.182Z,12.28
2023-05-10T01:43:34.158Z,12.28
2023-05-10T01:44:34.173Z,12.31
2023-05-10T01:45:34.134Z,12.28
2023-05-10T01:46:34.179Z,12.29
2023-05-10T01:47:34.139Z,12.27
2023-05-10T01:48:34.086Z,12.28
2023-05-10T01:49:34.114Z,12.28
2023-05-10T01:50:34.056Z,12.27
2023-05-10T01:51:34.056Z,12.28
2023-05-10T01:52:34.028Z,12.27
2023-05-10T01:53:34.007Z,12.27
2023-05-10T01:54:34.046Z,12.24
2023-05-10T01:55:34.012Z,12.23
2023-05-10T01:56:33.981Z,12.27
2023-05-10T01:57:34.003Z,12.27
2023-05-10T01:58:34.359Z,12.27
2023-05-10T01:59:33.980Z,12.27
2023-05-10T02:00:33.973Z,12.27
2023-05-10T02:01:33.909Z,12.27
2023-05-10T02:02:33.958Z,12.28
2023-05-10T02:03:33.949Z,12.29
2023-05-10T02:04:33.900Z,12.28
2023-05-10T02:05:33.864Z,12.27
2023-05-10T02:06:34.753Z,12.27
2023-05-10T02:07:34.163Z,12.28
2023-05-10T02:08:33.854Z,12.28
2023-05-10T02:09:33.836Z,12.28
2023-05-10T02:10:34.672Z,12.27
2023-05-10T02:11:34.209Z,12.28
2023-05-10T02:12:33.799Z,12.27
2023-05-10T02:13:33.749Z,12.24
2023-05-10T02:14:33.807Z,12.28
2023-05-10T02:15:33.744Z,12.24
2023-05-10T02:16:33.798Z,12.24
2023-05-10T02:17:34.317Z,12.23
2023-05-10T02:18:33.741Z,12.20
2023-05-10T02:19:33.740Z,12.20
2023-05-10T02:20:33.744Z,12.17
2023-05-10T02:21:33.711Z,12.17
2023-05-10T02:22:33.712Z,12.17
2023-05-10T02:23:33.721Z,12.19
2023-05-10T02:24:33.666Z,12.19
2023-05-10T02:25:33.644Z,12.20
2023-05-10T02:26:33.631Z,12.20
2023-05-10T02:27:33.637Z,12.20
2023-05-10T02:28:33.672Z,12.20
2023-05-10T02:29:33.586Z,12.20
2023-05-10T02:30:33.678Z,12.19
2023-05-10T02:31:33.620Z,12.17
2023-05-10T02:32:33.676Z,12.17
2023-05-10T02:33:33.566Z,12.16
2023-05-10T02:34:33.583Z,12.14
2023-05-10T02:35:33.599Z,12.17
2023-05-10T02:36:33.571Z,12.17
2023-05-10T02:37:33.504Z,12.17
2023-05-10T02:38:33.539Z,12.17
2023-05-10T02:39:33.533Z,12.19
2023-05-10T02:40:33.561Z,12.19
2023-05-10T02:41:33.480Z,12.19
2023-05-10T02:42:33.488Z,12.17
2023-05-10T02:43:33.427Z,12.16
2023-05-10T02:44:33.483Z,12.17
2023-05-10T02:45:33.464Z,12.17
2023-05-10T02:46:33.482Z,12.14
2023-05-10T02:47:33.513Z,12.16
2023-05-10T02:48:33.416Z,12.16
2023-05-10T02:49:33.394Z,12.16
2023-05-10T02:50:33.466Z,12.16
2023-05-10T02:51:33.345Z,12.17
2023-05-10T02:52:33.333Z,12.16
2023-05-10T02:53:33.320Z,12.17
2023-05-10T02:54:33.361Z,12.17
2023-05-10T02:55:33.316Z,12.19
2023-05-10T02:56:33.337Z,12.19
2023-05-10T02:57:33.312Z,12.17
2023-05-10T02:58:33.280Z,12.19
2023-05-10T02:59:33.244Z,12.20
2023-05-10T03:00:34.195Z,12.23
2023-05-10T03:01:33.280Z,12.23
2023-05-10T03:02:33.384Z,12.23
2023-05-10T03:03:33.198Z,12.23
2023-05-10T03:04:33.255Z,12.24
2023-05-10T03:05:33.255Z,12.27
2023-05-10T03:06:33.191Z,12.27
2023-05-10T03:07:33.174Z,12.24
2023-05-10T03:08:33.176Z,12.24
2023-05-10T03:09:33.120Z,12.28
2023-05-10T03:10:33.148Z,12.24
2023-05-10T03:11:33.144Z,12.27
2023-05-10T03:12:33.131Z,12.27
2023-05-10T03:13:33.194Z,12.27
2023-05-10T03:14:33.139Z,12.28
2023-05-10T03:15:33.074Z,12.28
2023-05-10T03:16:33.162Z,12.28
2023-05-10T03:17:33.092Z,12.27
2023-05-10T03:18:33.077Z,12.28
2023-05-10T03:19:33.018Z,12.29
2023-05-10T03:20:33.157Z,12.29
2023-05-10T03:21:32.993Z,12.31
2023-05-10T03:22:33.032Z,12.28
2023-05-10T03:23:33.003Z,12.31
2023-05-10T03:24:33.014Z,12.29
2023-05-10T03:25:32.941Z,12.29
2023-05-10T03:26:32.990Z,12.29
2023-05-10T03:27:32.932Z,12.28
2023-05-10T03:28:32.979Z,12.29
2023-05-10T03:29:32.912Z,12.28
2023-05-10T03:30:32.926Z,12.29
2023-05-10T03:31:32.908Z,12.32
2023-05-10T03:32:33.051Z,12.31
2023-05-10T03:33:32.878Z,12.32
2023-05-10T03:34:32.900Z,12.34
2023-05-10T03:35:32.828Z,12.34
2023-05-10T03:36:32.863Z,12.32
2023-05-10T03:37:32.831Z,12.34
2023-05-10T03:38:32.838Z,12.34
2023-05-10T03:39:32.869Z,12.37
2023-05-10T03:40:33.708Z,12.35
2023-05-10T03:41:32.789Z,12.35
2023-05-10T03:42:32.773Z,12.37
2023-05-10T03:43:32.746Z,12.37
2023-05-10T03:44:32.766Z,12.38
2023-05-10T03:45:32.733Z,12.37
2023-05-10T03:46:32.808Z,12.38
2023-05-10T03:47:32.721Z,12.38
2023-05-10T03:48:32.733Z,12.38
2023-05-10T03:49:32.777Z,12.38
2023-05-10T03:50:33.044Z,12.39
2023-05-10T03:51:32.646Z,12.41
2023-05-10T03:52:32.730Z,12.39
2023-05-10T03:53:32.653Z,12.41
2023-05-10T03:54:32.628Z,12.41
2023-05-10T03:55:32.630Z,12.41
2023-05-10T03:56:32.655Z,12.41
2023-05-10T03:57:32.637Z,12.41
2023-05-10T03:58:32.606Z,12.39
2023-05-10T03:59:32.564Z,12.41
2023-05-10T04:00:32.599Z,12.41
2023-05-10T04:01:33.108Z,12.41
2023-05-10T04:02:32.730Z,12.41
2023-05-10T04:03:32.637Z,12.41
2023-05-10T04:04:32.640Z,12.41
2023-05-10T04:05:32.516Z,12.41
2023-05-10T04:06:32.597Z,12.41
2023-05-10T04:07:33.039Z,12.41
2023-05-10T04:08:32.491Z,12.39
2023-05-10T04:09:32.451Z,12.41
2023-05-10T04:10:32.481Z,12.39
2023-05-10T04:11:32.442Z,12.39
2023-05-10T04:12:32.442Z,12.39
2023-05-10T04:13:32.681Z,12.42
2023-05-10T04:14:32.459Z,12.41
2023-05-10T04:15:32.489Z,12.39
2023-05-10T04:16:32.460Z,12.38
2023-05-10T04:17:32.397Z,12.38
2023-05-10T04:18:32.404Z,12.38
2023-05-10T04:19:32.336Z,12.37
2023-05-10T04:20:32.363Z,12.37
2023-05-10T04:21:32.315Z,12.37
2023-05-10T04:22:32.358Z,12.38
2023-05-10T04:23:32.305Z,12.37
2023-05-10T04:24:32.317Z,12.37
2023-05-10T04:25:32.264Z,12.37
2023-05-10T04:26:32.321Z,12.37
2023-05-10T04:27:32.301Z,12.37
2023-05-10T04:28:32.294Z,12.37
2023-05-10T04:29:32.253Z,12.35
2023-05-10T04:30:32.225Z,12.32
2023-05-10T04:31:32.256Z,12.31
2023-05-10T04:32:32.202Z,12.31
2023-05-10T04:33:32.930Z,12.31
2023-05-10T04:34:32.209Z,12.31
2023-05-10T04:35:32.197Z,12.32
2023-05-10T04:36:32.151Z,12.32
2023-05-10T04:37:32.185Z,12.31
2023-05-10T04:38:32.147Z,12.31
2023-05-10T04:39:32.225Z,12.28
2023-05-10T04:40:33.025Z,12.27
2023-05-10T04:41:32.944Z,12.28
2023-05-10T04:42:32.856Z,12.24
2023-05-10T04:43:32.270Z,12.27
2023-05-10T04:44:32.140Z,12.28
2023-05-10T04:45:32.071Z,12.31
2023-05-10T04:46:32.126Z,12.29
2023-05-10T04:47:32.225Z,12.29
2023-05-10T04:48:31.999Z,12.29
2023-05-10T04:49:32.017Z,12.31
2023-05-10T04:50:32.005Z,12.32
2023-05-10T04:51:32.057Z,12.32
2023-05-10T04:52:31.954Z,12.34
2023-05-10T04:53:31.969Z,12.34
2023-05-10T04:54:31.961Z,12.37
2023-05-10T04:55:31.967Z,12.37
2023-05-10T04:56:31.938Z,12.38
2023-05-10T04:57:32.007Z,12.38
2023-05-10T04:58:31.881Z,12.38
2023-05-10T04:59:31.902Z,12.37
2023-05-10T05:00:31.877Z,12.35
2023-05-10T05:01:31.919Z,12.34
2023-05-10T05:02:31.986Z,12.37
2023-05-10T05:03:31.997Z,12.38
2023-05-10T05:04:31.830Z,12.35
2023-05-10T05:05:31.822Z,12.34
2023-05-10T05:06:31.815Z,12.34
2023-05-10T05:07:31.810Z,12.35
2023-05-10T05:08:31.902Z,12.37
2023-05-10T05:09:31.782Z,12.37
2023-05-10T05:10:31.737Z,12.38
2023-05-10T05:11:38.892Z,12.39
2023-05-10T05:12:31.731Z,12.37
2023-05-10T05:13:31.750Z,12.35
2023-05-10T05:14:32.365Z,12.34
2023-05-10T05:15:31.698Z,12.37
2023-05-10T05:16:32.658Z,12.38
2023-05-10T05:17:31.719Z,12.41
2023-05-10T05:18:31.677Z,12.46
2023-05-10T05:19:31.698Z,12.49
2023-05-10T05:20:31.636Z,12.52
2023-05-10T05:21:31.643Z,12.53
2023-05-10T05:22:31.644Z,12.57
2023-05-10T05:23:31.757Z,12.59
2023-05-10T05:24:31.603Z,12.64
2023-05-10T05:25:31.620Z,12.65
2023-05-10T05:26:31.566Z,12.68
2023-05-10T05:27:31.577Z,12.70
2023-05-10T05:28:31.537Z,12.72
2023-05-10T05:29:31.682Z,12.74
2023-05-10T05:30:31.512Z,12.77
2023-05-10T05:31:31.608Z,12.79
2023-05-10T05:32:31.487Z,12.82
2023-05-10T05:33:31.523Z,12.85
2023-05-10T05:34:31.459Z,12.90
2023-05-10T05:35:31.462Z,12.90
2023-05-10T05:36:31.478Z,12.93
2023-05-10T05:37:31.451Z,12.95
2023-05-10T05:38:31.424Z,12.95
2023-05-10T05:39:31.472Z,13.00
2023-05-10T05:40:31.401Z,13.04
2023-05-10T05:41:31.388Z,13.07
2023-05-10T05:42:31.570Z,13.11
2023-05-10T05:43:31.682Z,13.12
2023-05-10T05:44:31.495Z,13.15
2023-05-10T05:45:31.406Z,13.19
2023-05-10T05:46:31.451Z,13.23
2023-05-10T05:47:31.397Z,13.14
2023-05-10T05:48:31.309Z,13.14
2023-05-10T05:49:31.350Z,13.14
2023-05-10T05:50:31.375Z,13.12
2023-05-10T05:51:31.316Z,13.14
2023-05-10T05:52:31.263Z,13.15
2023-05-10T05:53:31.332Z,13.20
2023-05-10T05:54:31.244Z,13.23
2023-05-10T05:55:31.259Z,13.26
2023-05-10T05:56:31.224Z,13.29
2023-05-10T05:57:31.299Z,13.29
2023-05-10T05:58:31.292Z,13.32
2023-05-10T05:59:31.208Z,13.33
2023-05-10T06:00:31.326Z,13.38
2023-05-10T06:01:32.681Z,13.41
2023-05-10T06:02:31.407Z,13.45
2023-05-10T06:03:31.595Z,13.42
2023-05-10T06:04:31.328Z,13.44
2023-05-10T06:05:31.367Z,13.48
2023-05-10T06:06:31.224Z,13.52
2023-05-10T06:07:31.142Z,13.57
2023-05-10T06:08:31.597Z,13.62
2023-05-10T06:09:31.413Z,13.63
2023-05-10T06:10:31.675Z,13.64
2023-05-10T06:11:31.704Z,13.64
2023-05-10T06:12:31.052Z,13.64
2023-05-10T06:13:31.171Z,13.63
2023-05-10T06:14:31.029Z,13.63
2023-05-10T06:15:31.030Z,13.64
2023-05-10T06:16:31.106Z,13.64
2023-05-10T06:17:31.026Z,13.67
2023-05-10T06:18:30.990Z,13.73
2023-05-10T06:19:30.991Z,13.81
2023-05-10T06:20:30.981Z,13.87
2023-05-10T06:21:31.000Z,13.92
2023-05-10T06:22:30.949Z,13.97
2023-05-10T06:23:31.465Z,14.02
2023-05-10T06:24:30.948Z,14.06
2023-05-10T06:25:31.009Z,14.09
2023-05-10T06:26:30.894Z,14.06
2023-05-10T06:27:30.941Z,14.06
2023-05-10T06:28:30.876Z,14.12
2023-05-10T06:29:30.897Z,14.17
2023-05-10T06:30:31.742Z,14.21
2023-05-10T06:31:31.105Z,14.20
2023-05-10T06:32:30.885Z,14.25
2023-05-10T06:33:30.873Z,14.22
2023-05-10T06:34:30.860Z,14.24
2023-05-10T06:35:30.825Z,14.27
2023-05-10T06:36:31.086Z,14.28
2023-05-10T06:37:30.860Z,14.33
2023-05-10T06:38:30.802Z,14.37
2023-05-10T06:39:30.818Z,14.42
2023-05-10T06:40:30.797Z,14.46
2023-05-10T06:41:30.793Z,14.45
2023-05-10T06:42:30.748Z,14.42
2023-05-10T06:43:30.792Z,14.42
2023-05-10T06:44:31.309Z,14.46
2023-05-10T06:45:30.909Z,14.47
2023-05-10T06:46:30.753Z,14.51
2023-05-10T06:47:31.607Z,14.52
2023-05-10T06:48:30.685Z,14.54
2023-05-10T06:49:30.698Z,14.58
2023-05-10T06:50:30.668Z,14.60
2023-05-10T06:51:30.659Z,14.62
2023-05-10T06:52:30.621Z,14.64
2023-05-10T06:53:30.625Z,14.61
2023-05-10T06:54:30.630Z,14.64
2023-05-10T06:55:30.631Z,14.65
2023-05-10T06:56:30.625Z,14.69
2023-05-10T06:57:31.994Z,14.70
2023-05-10T06:58:30.554Z,14.75
2023-05-10T06:59:31.193Z,14.70
2023-05-10T07:00:30.541Z,14.68
2023-05-10T07:01:30.578Z,14.65
2023-05-10T07:02:30.528Z,14.64
2023-05-10T07:03:30.492Z,14.58
2023-05-10T07:04:31.275Z,14.54
2023-05-10T07:05:30.889Z,14.51
2023-05-10T07:06:33.664Z,14.47
2023-05-10T07:07:30.913Z,14.42
2023-05-10T07:08:30.437Z,14.39
2023-05-10T07:09:31.021Z,14.33
2023-05-10T07:10:30.424Z,14.32
2023-05-10T07:11:30.415Z,14.29
2023-05-10T07:12:30.468Z,14.24
2023-05-10T07:13:30.440Z,14.22
2023-05-10T07:14:30.392Z,14.17
2023-05-10T07:15:30.361Z,14.15
2023-05-10T07:16:30.405Z,14.10
2023-05-10T07:17:30.408Z,14.06
2023-05-10T07:18:30.332Z,14.00
2023-05-10T07:19:30.332Z,14.03
2023-05-10T07:20:30.413Z,14.02
2023-05-10T07:21:30.326Z,14.07
2023-05-10T07:22:30.265Z,14.10
2023-05-10T07:23:30.359Z,14.14
2023-05-10T07:24:30.458Z,14.10
2023-05-10T07:25:31.083Z,13.91
2023-05-10T07:26:30.250Z,13.84
2023-05-10T07:27:30.225Z,13.79
2023-05-10T07:28:30.281Z,13.79
2023-05-10T07:29:30.313Z,13.88
2023-05-10T07:30:30.194Z,13.97
2023-05-10T07:31:30.429Z,14.06
2023-05-10T07:32:30.332Z,14.10
2023-05-10T07:33:30.161Z,14.15
2023-05-10T07:34:30.165Z,14.06
2023-05-10T07:35:30.129Z,14.03
2023-05-10T07:36:30.124Z,14.02
2023-05-10T07:37:30.109Z,14.10
2023-05-10T07:38:30.080Z,14.21
2023-05-10T07:39:30.102Z,14.24
2023-05-10T07:40:30.065Z,14.36
2023-05-10T07:41:30.067Z,14.42
2023-05-10T07:42:30.369Z,14.45
2023-05-10T07:43:30.091Z,14.55
2023-05-10T07:44:30.036Z,14.57
2023-05-10T07:45:30.104Z,14.65
2023-05-10T07:46:30.005Z,14.69
2023-05-10T07:47:30.046Z,14.80
2023-05-10T07:48:29.949Z,14.89
2023-05-10T07:49:29.973Z,14.99
2023-05-10T07:50:29.942Z,15.07
2023-05-10T07:51:29.929Z,15.14
2023-05-10T07:52:29.968Z,15.19
2023-05-10T07:53:29.926Z,15.19
2023-05-10T07:54:29.898Z,15.14
2023-05-10T07:55:29.936Z,15.10
2023-05-10T07:56:29.885Z,15.09
2023-05-10T07:57:30.207Z,15.03
2023-05-10T07:58:29.844Z,14.98
2023-05-10T07:59:29.843Z,14.92
2023-05-10T08:00:29.788Z,14.84
2023-05-10T08:01:29.845Z,14.80
2023-05-10T08:02:29.944Z,14.69
2023-05-10T08:03:29.832Z,14.62
2023-05-10T08:04:29.959Z,14.60
2023-05-10T08:05:29.760Z,14.47
2023-05-10T08:06:30.020Z,14.32
2023-05-10T08:07:30.073Z,14.24
2023-05-10T08:08:29.717Z,14.22
2023-05-10T08:09:29.737Z,14.15
2023-05-10T08:10:29.694Z,14.17
2023-05-10T08:11:29.726Z,14.18
2023-05-10T08:12:29.672Z,14.21
2023-05-10T08:13:29.677Z,14.24
2023-05-10T08:14:29.666Z,14.32
2023-05-10T08:15:30.298Z,14.36
2023-05-10T08:16:30.320Z,14.47
2023-05-10T08:17:29.687Z,14.58
2023-05-10T08:18:29.649Z,14.70
2023-05-10T08:19:29.600Z,14.86
2023-05-10T08:20:29.552Z,15.01
2023-05-10T08:21:29.733Z,15.17
2023-05-10T08:22:29.580Z,15.29
2023-05-10T08:23:29.616Z,15.44
2023-05-10T08:24:29.522Z,15.56
2023-05-10T08:25:29.532Z,15.64
2023-05-10T08:26:29.957Z,15.65
2023-05-10T08:27:29.818Z,15.71
2023-05-10T08:28:29.506Z,15.65
2023-05-10T08:29:32.754Z,15.60
2023-05-10T08:30:30.469Z,15.67
2023-05-10T08:31:29.509Z,15.76
2023-05-10T08:32:29.526Z,15.86
2023-05-10T08:33:29.505Z,15.94
2023-05-10T08:34:29.495Z,16.07
2023-05-10T08:35:29.460Z,16.02
2023-05-10T08:36:29.376Z,16.04
2023-05-10T08:37:29.408Z,16.09
2023-05-10T08:38:29.378Z,16.17
2023-05-10T08:39:30.737Z,16.15
2023-05-10T08:40:29.534Z,16.20
2023-05-10T08:41:29.404Z,16.25
2023-05-10T08:42:29.704Z,16.39
2023-05-10T08:43:29.677Z,16.45
2023-05-10T08:44:29.326Z,16.60
2023-05-10T08:45:29.334Z,16.71
2023-05-10T08:46:29.743Z,16.82
2023-05-10T08:47:29.683Z,16.91
2023-05-10T08:48:29.396Z,16.94
2023-05-10T08:49:29.267Z,16.97
2023-05-10T08:50:29.259Z,16.96
2023-05-10T08:51:29.195Z,16.94
2023-05-10T08:52:29.221Z,16.93
2023-05-10T08:53:29.815Z,16.76
2023-05-10T08:54:29.188Z,16.75
2023-05-10T08:55:29.173Z,16.71
2023-05-10T08:56:29.187Z,16.63
2023-05-10T08:57:29.148Z,16.61
2023-05-10T08:58:29.199Z,16.66
2023-05-10T08:59:29.129Z,16.64
2023-05-10T09:00:29.145Z,16.66
2023-05-10T09:01:29.196Z,16.46
2023-05-10T09:02:29.156Z,16.42
2023-05-10T09:03:29.095Z,16.39
2023-05-10T09:04:29.741Z,16.41
2023-05-10T09:05:29.100Z,16.34
2023-05-10T09:06:29.070Z,16.20
2023-05-10T09:07:29.757Z,16.23
2023-05-10T09:08:29.174Z,16.21
2023-05-10T09:09:29.008Z,16.21
2023-05-10T09:10:29.141Z,16.15
2023-05-10T09:11:29.651Z,16.09
2023-05-10T09:12:29.002Z,16.09
2023-05-10T09:13:28.971Z,16.05
2023-05-10T09:14:29.010Z,16.01
2023-05-10T09:15:28.955Z,15.97
2023-05-10T09:16:29.042Z,15.93
2023-05-10T09:17:29.064Z,15.93
2023-05-10T09:18:28.961Z,15.97
2023-05-10T09:19:28.900Z,16.01
2023-05-10T09:20:28.915Z,16.00
2023-05-10T09:21:28.864Z,15.96
2023-05-10T09:22:28.878Z,15.82
2023-05-10T09:23:28.893Z,15.54
2023-05-10T09:24:28.851Z,15.44
2023-05-10T09:25:28.854Z,15.49
2023-05-10T09:26:28.842Z,15.57
2023-05-10T09:27:29.291Z,15.69
2023-05-10T09:28:29.175Z,15.84
2023-05-10T09:29:28.847Z,15.94
2023-05-10T09:30:28.812Z,15.94
2023-05-10T09:31:28.934Z,16.07
2023-05-10T09:32:28.815Z,16.11
2023-05-10T09:33:28.761Z,16.11
2023-05-10T09:34:28.743Z,16.08
2023-05-10T09:35:29.889Z,16.00
2023-05-10T09:36:28.754Z,16.08
2023-05-10T09:37:28.704Z,15.97
2023-05-10T09:38:28.751Z,15.97
2023-05-10T09:39:28.675Z,16.11
2023-05-10T09:40:28.711Z,16.25
2023-05-10T09:41:28.636Z,16.41
2023-05-10T09:42:28.666Z,16.58
2023-05-10T09:43:28.669Z,16.67
2023-05-10T09:44:28.657Z,16.83
2023-05-10T09:45:28.585Z,16.94
2023-05-10T09:46:28.680Z,17.04
2023-05-10T09:47:28.645Z,17.18
2023-05-10T09:48:28.589Z,17.18
2023-05-10T09:49:28.703Z,17.25
2023-05-10T09:50:28.562Z,17.16
2023-05-10T09:51:28.562Z,16.83
2023-05-10T09:52:28.577Z,16.66
2023-05-10T09:53:28.526Z,16.50
2023-05-10T09:54:28.541Z,16.27
2023-05-10T09:55:28.521Z,16.02
2023-05-10T09:56:28.543Z,15.90
2023-05-10T09:57:28.459Z,15.78
2023-05-10T09:58:28.483Z,15.78
2023-05-10T09:59:28.446Z,15.76
2023-05-10T10:00:29.233Z,15.82
2023-05-10T10:01:28.486Z,15.86
2023-05-10T10:02:28.495Z,15.78
2023-05-10T10:03:30.293Z,15.86
2023-05-10T10:04:28.506Z,16.04
2023-05-10T10:05:28.489Z,16.24
2023-05-10T10:06:30.352Z,16.35
2023-05-10T10:07:28.500Z,16.49
2023-05-10T10:08:28.686Z,16.58
2023-05-10T10:09:28.496Z,16.58
2023-05-10T10:10:28.457Z,16.49
2023-05-10T10:11:28.375Z,16.56
2023-05-10T10:12:28.346Z,16.53
2023-05-10T10:13:28.295Z,16.49
2023-05-10T10:14:28.618Z,16.58
2023-05-10T10:15:28.484Z,16.73
2023-05-10T10:16:28.645Z,16.89
2023-05-10T10:17:28.308Z,16.97
2023-05-10T10:18:28.351Z,17.15
2023-05-10T10:19:28.356Z,17.25
2023-05-10T10:20:28.643Z,17.28
2023-05-10T10:21:28.492Z,17.40
2023-05-10T10:22:28.869Z,17.51
2023-05-10T10:23:29.284Z,17.70
2023-05-10T10:24:28.243Z,17.84
2023-05-10T10:25:28.168Z,17.95
2023-05-10T10:26:28.168Z,18.05
2023-05-10T10:27:28.133Z,18.30
2023-05-10T10:28:28.472Z,18.57
2023-05-10T10:29:28.202Z,18.78
2023-05-10T10:30:28.418Z,19.04
2023-05-10T10:31:28.140Z,19.14
2023-05-10T10:32:28.237Z,19.07
2023-05-10T10:33:29.087Z,19.02
2023-05-10T10:34:28.091Z,19.08
2023-05-10T10:35:28.095Z,19.13
2023-05-10T10:36:28.361Z,18.81
2023-05-10T10:37:28.061Z,18.47
2023-05-10T10:38:28.091Z,18.36
2023-05-10T10:39:27.987Z,18.39
2023-05-10T10:40:27.999Z,18.42
2023-05-10T10:41:28.012Z,18.42
2023-05-10T10:42:27.988Z,18.42
2023-05-10T10:43:28.107Z,18.25
2023-05-10T10:44:27.965Z,18.18
2023-05-10T10:45:27.933Z,18.23
2023-05-10T10:46:27.948Z,18.08
2023-05-10T10:47:27.932Z,17.75
2023-05-10T10:48:28.102Z,17.48
2023-05-10T10:49:27.885Z,17.58
2023-05-10T10:50:28.336Z,17.74
2023-05-10T10:51:28.345Z,17.87
2023-05-10T10:52:27.887Z,18.02
2023-05-10T10:53:27.906Z,18.05
2023-05-10T10:54:27.883Z,17.97
2023-05-10T10:55:27.842Z,17.70
2023-05-10T10:56:28.151Z,17.77
2023-05-10T10:57:27.807Z,17.74
2023-05-10T10:58:27.795Z,17.78
2023-05-10T10:59:27.900Z,17.81
2023-05-10T11:00:27.785Z,17.75
2023-05-10T11:01:27.810Z,17.75
2023-05-10T11:02:28.991Z,17.58
2023-05-10T11:03:27.889Z,17.63
2023-05-10T11:04:27.769Z,17.78
2023-05-10T11:05:27.765Z,17.79
2023-05-10T11:06:27.746Z,17.70
2023-05-10T11:07:27.757Z,17.81
2023-05-10T11:08:27.683Z,17.89
2023-05-10T11:09:27.713Z,17.79
2023-05-10T11:10:27.749Z,17.75
2023-05-10T11:11:27.727Z,17.81
2023-05-10T11:12:27.641Z,17.72
2023-05-10T11:13:27.646Z,17.48
2023-05-10T11:14:27.658Z,17.26
2023-05-10T11:15:27.579Z,17.15
2023-05-10T11:16:27.839Z,17.12
2023-05-10T11:17:27.615Z,17.07
2023-05-10T11:18:27.677Z,17.12
2023-05-10T11:19:27.532Z,17.08
2023-05-10T11:20:27.542Z,17.11
2023-05-10T11:21:27.537Z,17.04
2023-05-10T11:22:27.529Z,16.97
2023-05-10T11:23:27.503Z,16.93
2023-05-10T11:24:27.501Z,16.81
2023-05-10T11:25:27.504Z,16.61
2023-05-10T11:26:27.519Z,16.35
2023-05-10T11:27:27.460Z,16.30
2023-05-10T11:28:27.485Z,16.25
2023-05-10T11:29:27.458Z,16.21
2023-05-10T11:30:27.446Z,16.05
2023-05-10T11:31:27.807Z,15.90
2023-05-10T11:32:27.445Z,15.83
2023-05-10T11:33:27.406Z,15.74
2023-05-10T11:34:27.416Z,15.68
2023-05-10T11:35:27.377Z,15.65
2023-05-10T11:36:27.370Z,15.50
2023-05-10T11:37:27.464Z,15.51
2023-05-10T11:38:27.376Z,15.57
2023-05-10T11:39:27.313Z,15.65
2023-05-10T11:40:27.340Z,15.76
2023-05-10T11:41:27.296Z,15.89
2023-05-10T11:42:27.321Z,15.93
2023-05-10T11:43:27.293Z,16.02
2023-05-10T11:44:27.473Z,16.12
2023-05-10T11:45:27.252Z,16.23
2023-05-10T11:46:27.375Z,16.30
2023-05-10T11:47:27.267Z,16.43
2023-05-10T11:48:27.233Z,16.31
2023-05-10T11:49:27.209Z,16.41
2023-05-10T11:50:27.202Z,16.48
2023-05-10T11:51:27.732Z,16.49
2023-05-10T11:52:27.204Z,16.48
2023-05-10T11:53:27.188Z,16.48
2023-05-10T11:54:27.215Z,16.42
2023-05-10T11:55:27.144Z,16.43
2023-05-10T11:56:31.494Z,16.46
2023-05-10T11:57:27.113Z,16.42
2023-05-10T11:58:27.146Z,16.45
2023-05-10T11:59:27.147Z,16.12
2023-05-10T12:00:27.183Z,16.12
2023-05-10T12:01:27.071Z,16.08
2023-05-10T12:02:27.176Z,16.15
2023-05-10T12:03:27.249Z,16.25
2023-05-10T12:04:27.269Z,16.01
2023-05-10T12:05:27.177Z,16.17
2023-05-10T12:06:27.085Z,16.34
2023-05-10T12:07:26.986Z,16.56
2023-05-10T12:08:27.093Z,16.66
2023-05-10T12:10:27.059Z,16.94
2023-05-10T12:11:26.965Z,16.76
2023-05-10T12:12:26.974Z,16.70
2023-05-10T12:13:26.938Z,16.60
2023-05-10T12:14:26.948Z,16.43
2023-05-10T12:15:26.897Z,16.48
2023-05-10T12:16:27.045Z,16.60
2023-05-10T12:17:26.898Z,16.78
2023-05-10T12:18:26.981Z,16.98
2023-05-10T12:19:26.866Z,17.15
2023-05-10T12:20:26.867Z,17.31
2023-05-10T12:21:26.925Z,17.48
2023-05-10T12:22:26.847Z,17.48
2023-05-10T12:23:26.813Z,17.62
2023-05-10T12:24:26.824Z,17.64
2023-05-10T12:25:26.830Z,17.75
2023-05-10T12:26:26.801Z,17.87
2023-05-10T12:27:26.774Z,17.81
2023-05-10T12:28:26.808Z,17.86
2023-05-10T12:29:26.730Z,17.92
2023-05-10T12:30:26.810Z,17.93
2023-05-10T12:31:26.812Z,17.84
2023-05-10T12:32:27.045Z,17.90
2023-05-10T12:33:26.998Z,17.93
2023-05-10T12:34:26.773Z,18.11
2023-05-10T12:35:26.897Z,18.21
2023-05-10T12:36:27.123Z,18.26
2023-05-10T12:37:26.681Z,18.42
2023-05-10T12:38:27.319Z,18.63
2023-05-10T12:39:26.857Z,18.81
2023-05-10T12:40:26.665Z,18.69
2023-05-10T12:41:26.645Z,18.70
2023-05-10T12:42:26.783Z,18.81
2023-05-10T12:43:26.580Z,18.90
2023-05-10T12:44:26.856Z,18.90
2023-05-10T12:45:26.586Z,18.80
2023-05-10T12:46:26.774Z,18.75
2023-05-10T12:47:26.669Z,18.69
2023-05-10T12:48:26.558Z,18.60
2023-05-10T12:49:26.541Z,18.60
2023-05-10T12:50:26.537Z,18.55
2023-05-10T12:51:26.564Z,18.55
2023-05-10T12:52:26.811Z,18.37
2023-05-10T12:53:26.475Z,18.27